Terminal Aerodrome Forecast
Issued by NWS Northern Indiana

Home | Current Version | Previous Version | Text Only | Print | Product List | Glossary Off
Versions: 1 2 3 4 5 6 7 8 9 10 11 12 13 14 15

999
FTUS43 KIWX 260527
TAFFWA
TAF
KFWA 260527Z 2606/2706 13006KT P6SM BKN150
     FM261300 16011KT P6SM BKN200
     FM261800 18016G25KT P6SM SCT100
     FM270100 18010KT P6SM BKN200=

USA.gov is the U.S. government's official web portal to all federal, state and local government web resources and services.